createdAt,value
2022-12-31T00:00:13.759Z,0.98
2022-12-31T00:03:36.496Z,1.25
2022-12-31T00:06:39.007Z,1.25
2022-12-31T00:09:42.410Z,1.10
2022-12-31T00:12:45.857Z,1.20
2022-12-31T00:15:48.099Z,0.85
2022-12-31T00:18:53.198Z,0.68
2022-12-31T00:21:55.406Z,1.10
2022-12-31T00:24:57.791Z,0.93
2022-12-31T00:28:00.306Z,0.70
2022-12-31T00:31:11.525Z,0.90
2022-12-31T00:34:13.755Z,0.85
2022-12-31T00:37:16.310Z,0.82
2022-12-31T00:40:18.867Z,0.80
2022-12-31T00:43:22.344Z,0.80
2022-12-31T00:46:25.578Z,0.70
2022-12-31T00:49:28.542Z,0.60
2022-12-31T00:52:31.074Z,0.85
2022-12-31T00:55:33.795Z,0.70
2022-12-31T00:58:35.843Z,0.80
2022-12-31T01:01:40.588Z,0.88
2022-12-31T01:04:42.832Z,0.63
2022-12-31T01:07:46.001Z,0.70
2022-12-31T01:11:08.603Z,0.85
2022-12-31T01:14:17.277Z,0.98
2022-12-31T01:17:19.336Z,0.90
2022-12-31T01:20:21.802Z,1.25
2022-12-31T01:23:23.890Z,0.77
2022-12-31T01:26:27.177Z,0.85
2022-12-31T01:29:30.293Z,0.50
2022-12-31T01:32:33.189Z,0.80
2022-12-31T01:35:36.836Z,0.70
2022-12-31T01:38:39.408Z,0.88
2022-12-31T01:41:44.631Z,0.50
2022-12-31T01:44:57.349Z,0.60
2022-12-31T01:48:00.353Z,0.52
2022-12-31T01:51:03.245Z,0.85
2022-12-31T01:54:08.163Z,0.57
2022-12-31T01:57:12.618Z,0.40
2022-12-31T02:00:15.323Z,0.70
2022-12-31T02:03:23.295Z,0.70
2022-12-31T02:07:09.752Z,0.60
2022-12-31T02:10:12.534Z,0.60
2022-12-31T02:13:15.472Z,0.50
2022-12-31T02:16:32.697Z,0.50
2022-12-31T02:20:16.584Z,0.50
2022-12-31T02:23:41.985Z,0.50
2022-12-31T02:26:45.303Z,0.57
2022-12-31T02:30:06.400Z,0.70
2022-12-31T02:33:13.789Z,0.60
2022-12-31T02:36:24.254Z,0.60
2022-12-31T02:39:27.366Z,0.40
2022-12-31T02:42:30.028Z,0.50
2022-12-31T02:45:40.201Z,0.63
2022-12-31T02:48:52.120Z,0.77
2022-12-31T02:51:57.805Z,0.70
2022-12-31T02:55:09.292Z,0.98
2022-12-31T02:58:47.476Z,0.70
2022-12-31T03:02:17.087Z,0.43
2022-12-31T03:05:24.749Z,0.80
2022-12-31T03:08:27.687Z,0.85
2022-12-31T03:11:48.631Z,0.95
2022-12-31T03:14:51.458Z,0.50
2022-12-31T03:17:58.710Z,0.70
2022-12-31T03:21:20.449Z,1.00
2022-12-31T03:24:42.527Z,0.60
2022-12-31T03:27:46.051Z,0.70
2022-12-31T03:30:51.832Z,0.60
2022-12-31T03:33:54.583Z,0.68
2022-12-31T03:36:56.937Z,0.82
2022-12-31T03:39:59.894Z,0.70
2022-12-31T03:43:01.991Z,0.50
2022-12-31T03:46:04.717Z,0.95
2022-12-31T03:49:06.903Z,0.77
2022-12-31T03:52:09.268Z,0.85
2022-12-31T03:55:12.050Z,0.70
2022-12-31T03:58:14.867Z,0.65
2022-12-31T04:01:17.781Z,0.57
2022-12-31T04:04:20.755Z,0.70
2022-12-31T04:07:22.871Z,0.40
2022-12-31T04:10:25.440Z,0.80
2022-12-31T04:13:27.703Z,0.63
2022-12-31T04:16:32.573Z,0.90
2022-12-31T04:19:35.220Z,0.82
2022-12-31T04:22:37.872Z,0.50
2022-12-31T04:25:40.223Z,0.85
2022-12-31T04:28:42.924Z,0.77
2022-12-31T04:31:45.237Z,0.70
2022-12-31T04:34:48.243Z,0.57
2022-12-31T04:37:50.407Z,0.63
2022-12-31T04:41:11.616Z,0.60
2022-12-31T04:44:15.353Z,0.50
2022-12-31T04:47:23.388Z,0.60
2022-12-31T04:50:26.174Z,0.50
2022-12-31T04:53:29.880Z,0.47
2022-12-31T04:56:33.560Z,0.85
2022-12-31T04:59:35.942Z,0.85
2022-12-31T05:02:38.082Z,0.60
2022-12-31T05:05:45.182Z,0.63
2022-12-31T05:08:48.364Z,0.50
2022-12-31T05:11:51.305Z,0.60
2022-12-31T05:14:53.518Z,0.70
2022-12-31T05:17:56.788Z,0.95
2022-12-31T05:20:59.902Z,0.70
2022-12-31T05:24:02.649Z,0.70
2022-12-31T05:27:04.816Z,0.70
2022-12-31T05:30:08.628Z,0.47
2022-12-31T05:33:11.867Z,0.40
2022-12-31T05:36:15.330Z,0.77
2022-12-31T05:39:18.294Z,0.63
2022-12-31T05:42:21.797Z,0.50
2022-12-31T05:45:30.433Z,0.77
2022-12-31T05:48:33.859Z,0.63
2022-12-31T05:51:35.966Z,0.60
2022-12-31T05:54:38.827Z,0.60
2022-12-31T05:57:41.103Z,0.50
2022-12-31T06:00:43.707Z,0.60
2022-12-31T06:03:46.134Z,0.80
2022-12-31T06:06:49.145Z,0.77
2022-12-31T06:09:51.497Z,0.98
2022-12-31T06:12:53.824Z,0.60
2022-12-31T06:15:55.855Z,0.47
2022-12-31T06:18:58.338Z,0.50
2022-12-31T06:22:00.366Z,0.40
2022-12-31T06:25:03.281Z,0.50
2022-12-31T06:28:06.137Z,0.70
2022-12-31T06:31:11.754Z,0.60
2022-12-31T06:34:13.936Z,0.50
2022-12-31T06:37:16.685Z,0.40
2022-12-31T06:40:18.969Z,0.30
2022-12-31T06:43:22.785Z,0.63
2022-12-31T06:46:25.202Z,0.50
2022-12-31T06:49:27.977Z,0.60
2022-12-31T06:52:30.201Z,0.32
2022-12-31T06:55:33.173Z,0.40
2022-12-31T06:58:35.590Z,0.90
2022-12-31T07:01:51.257Z,0.90
2022-12-31T07:05:02.510Z,0.32
2022-12-31T07:08:29.956Z,0.70
2022-12-31T07:11:43.668Z,0.50
2022-12-31T07:15:05.509Z,0.40
2022-12-31T07:18:34.861Z,0.40
2022-12-31T07:21:40.546Z,0.40
2022-12-31T07:24:44.774Z,0.40
2022-12-31T07:31:13.836Z,0.55
2022-12-31T07:34:38.722Z,0.40
2022-12-31T07:37:49.491Z,0.40
2022-12-31T07:40:52.685Z,0.40
2022-12-31T07:44:07.818Z,0.50
2022-12-31T07:47:21.865Z,0.55
2022-12-31T07:50:24.465Z,0.40
2022-12-31T07:53:28.723Z,0.40
2022-12-31T07:56:33.945Z,0.60
2022-12-31T08:00:09.340Z,0.40
2022-12-31T08:03:42.370Z,0.25
2022-12-31T08:06:55.581Z,0.32
2022-12-31T08:10:06.386Z,0.20
2022-12-31T08:13:11.036Z,0.50
2022-12-31T08:16:14.581Z,0.20
2022-12-31T08:19:30.848Z,0.43
2022-12-31T08:22:42.060Z,0.40
2022-12-31T08:26:17.822Z,0.30
2022-12-31T08:30:49.577Z,0.30
2022-12-31T08:38:42.094Z,0.20
2022-12-31T08:41:47.846Z,0.30
2022-12-31T08:45:14.679Z,0.40
2022-12-31T08:48:39.931Z,0.73
2022-12-31T08:51:43.202Z,0.80
2022-12-31T08:54:46.155Z,0.60
2022-12-31T08:58:40.077Z,0.70
2022-12-31T09:01:49.315Z,0.80
2022-12-31T09:05:20.408Z,0.90
2022-12-31T09:08:34.882Z,0.70
2022-12-31T09:12:06.145Z,0.90
2022-12-31T09:15:17.627Z,0.75
2022-12-31T09:18:20.057Z,0.70
2022-12-31T09:21:23.010Z,0.90
2022-12-31T09:24:33.613Z,0.60
2022-12-31T09:27:52.009Z,1.00
2022-12-31T09:31:15.696Z,0.90
2022-12-31T09:34:29.151Z,0.83
2022-12-31T09:37:49.966Z,0.80
2022-12-31T09:41:17.876Z,0.80
2022-12-31T09:44:43.950Z,0.88
2022-12-31T09:48:04.486Z,0.70
2022-12-31T09:51:27.004Z,0.80
2022-12-31T09:54:40.638Z,0.85
2022-12-31T09:58:17.414Z,0.80
2022-12-31T10:01:31.798Z,1.17
2022-12-31T10:04:48.759Z,1.20
2022-12-31T10:08:16.302Z,1.42
2022-12-31T10:11:41.626Z,1.33
2022-12-31T10:14:59.801Z,1.40
2022-12-31T10:18:09.767Z,1.23
2022-12-31T10:21:18.528Z,1.38
2022-12-31T10:24:43.004Z,1.25
2022-12-31T10:27:53.651Z,1.30
2022-12-31T10:31:33.633Z,1.58
2022-12-31T10:35:12.077Z,1.20
2022-12-31T10:38:39.046Z,1.27
2022-12-31T10:42:12.476Z,1.20
2022-12-31T10:45:24.071Z,1.20
2022-12-31T10:48:45.479Z,1.13
2022-12-31T10:52:01.215Z,1.20
2022-12-31T10:55:41.823Z,1.30
2022-12-31T10:59:08.681Z,1.05
2022-12-31T11:02:29.688Z,1.10
2022-12-31T11:06:10.109Z,0.82
2022-12-31T11:09:34.704Z,0.90
2022-12-31T11:13:12.851Z,1.00
2022-12-31T11:16:43.282Z,0.85
2022-12-31T11:20:10.812Z,1.20
2022-12-31T11:23:48.378Z,0.95
2022-12-31T11:27:02.026Z,0.73
2022-12-31T11:33:31.503Z,1.45
2022-12-31T11:37:25.972Z,0.90
2022-12-31T11:40:42.530Z,0.90
2022-12-31T11:44:01.493Z,0.93
2022-12-31T11:47:29.083Z,0.88
2022-12-31T11:50:52.418Z,0.45
2022-12-31T11:54:21.096Z,0.90
2022-12-31T11:57:34.391Z,0.95
2022-12-31T12:00:39.208Z,1.38
2022-12-31T12:03:44.278Z,1.05
2022-12-31T12:06:46.609Z,1.08
2022-12-31T12:09:50.271Z,0.60
2022-12-31T12:12:54.844Z,0.93
2022-12-31T12:16:00.501Z,1.10
2022-12-31T12:19:06.811Z,0.90
2022-12-31T12:22:13.082Z,0.82
2022-12-31T12:25:22.820Z,0.80
2022-12-31T12:28:28.002Z,0.90
2022-12-31T12:31:30.723Z,0.88
2022-12-31T12:34:34.196Z,1.10
2022-12-31T12:37:37.097Z,0.73
2022-12-31T12:40:40.985Z,0.98
2022-12-31T12:43:44.093Z,0.95
2022-12-31T12:46:52.521Z,0.80
2022-12-31T12:49:55.197Z,0.85
2022-12-31T12:53:19.203Z,0.77
2022-12-31T12:56:31.015Z,0.90
2022-12-31T12:59:56.620Z,0.65
2022-12-31T13:06:28.355Z,0.57
2022-12-31T13:10:11.456Z,0.82
2022-12-31T13:13:35.797Z,0.82
2022-12-31T13:16:55.748Z,0.70
2022-12-31T13:20:20.374Z,0.85
2022-12-31T13:23:37.763Z,0.73
2022-12-31T13:26:48.619Z,0.75
2022-12-31T13:29:52.809Z,0.80
2022-12-31T13:33:07.315Z,0.88
2022-12-31T13:36:13.910Z,1.30
2022-12-31T13:39:28.009Z,1.02
2022-12-31T13:42:39.606Z,0.70
2022-12-31T13:45:45.415Z,1.45
2022-12-31T13:48:59.624Z,0.80
2022-12-31T13:52:17.346Z,0.80
2022-12-31T13:55:25.706Z,1.23
2022-12-31T13:58:40.336Z,1.02
2022-12-31T14:02:00.998Z,0.70
2022-12-31T14:05:23.272Z,1.10
2022-12-31T14:08:25.544Z,0.85
2022-12-31T14:12:23.433Z,1.10
2022-12-31T14:15:33.001Z,0.98
2022-12-31T14:18:48.906Z,0.70
2022-12-31T14:22:20.483Z,0.75
2022-12-31T14:25:31.430Z,1.13
2022-12-31T14:28:46.431Z,0.70
2022-12-31T14:32:17.792Z,0.98
2022-12-31T14:35:38.346Z,1.10
2022-12-31T14:39:05.335Z,0.80
2022-12-31T14:42:47.210Z,0.85
2022-12-31T14:46:11.246Z,1.23
2022-12-31T14:49:35.344Z,1.08
2022-12-31T14:53:00.022Z,1.25
2022-12-31T14:56:33.493Z,1.00
2022-12-31T14:59:40.413Z,1.20
2022-12-31T15:02:50.447Z,0.93
2022-12-31T15:06:17.912Z,1.10
2022-12-31T15:09:30.229Z,1.00
2022-12-31T15:12:43.596Z,1.27
2022-12-31T15:16:25.562Z,1.60
2022-12-31T15:20:10.132Z,1.08
2022-12-31T15:23:35.446Z,1.25
2022-12-31T15:26:49.445Z,1.08
2022-12-31T15:29:51.675Z,1.30
2022-12-31T15:32:58.690Z,2.07
2022-12-31T15:36:13.786Z,1.63
2022-12-31T15:39:16.354Z,1.48
2022-12-31T15:42:49.556Z,1.75
2022-12-31T15:45:55.841Z,1.38
2022-12-31T15:52:22.250Z,1.10
2022-12-31T15:55:53.325Z,1.67
2022-12-31T15:58:59.511Z,2.03
2022-12-31T16:02:01.696Z,1.30
2022-12-31T16:05:04.368Z,1.33
2022-12-31T16:08:07.191Z,1.33
2022-12-31T16:11:10.308Z,1.58
2022-12-31T16:14:29.018Z,1.50
2022-12-31T16:17:34.445Z,2.15
2022-12-31T16:20:42.933Z,1.17
2022-12-31T16:23:50.839Z,1.00
2022-12-31T16:26:56.398Z,1.63
2022-12-31T16:30:04.826Z,2.08
2022-12-31T16:33:14.702Z,1.40
2022-12-31T16:36:25.051Z,1.27
2022-12-31T16:39:37.158Z,1.48
2022-12-31T16:42:44.300Z,1.52
2022-12-31T16:45:47.302Z,1.88
2022-12-31T16:48:54.413Z,2.85
2022-12-31T16:52:29.026Z,2.00
2022-12-31T16:55:33.481Z,2.55
2022-12-31T16:58:40.093Z,2.17
2022-12-31T17:01:43.441Z,2.47
2022-12-31T17:04:55.589Z,2.30
2022-12-31T17:08:14.710Z,1.50
2022-12-31T17:11:24.450Z,2.60
2022-12-31T17:14:29.202Z,2.33
2022-12-31T17:17:36.358Z,2.30
2022-12-31T17:20:39.178Z,3.53
2022-12-31T17:23:42.279Z,2.45
2022-12-31T17:26:46.131Z,2.60
2022-12-31T17:29:48.739Z,3.03
2022-12-31T17:32:53.208Z,2.88
2022-12-31T17:36:20.842Z,3.55
2022-12-31T17:39:24.374Z,2.65
2022-12-31T17:42:36.626Z,2.80
2022-12-31T17:45:42.133Z,2.75
2022-12-31T17:48:46.177Z,3.35
2022-12-31T17:54:51.933Z,2.65
2022-12-31T17:57:57.266Z,3.10
2022-12-31T18:00:59.747Z,3.35
2022-12-31T18:04:03.021Z,2.53
2022-12-31T18:07:05.102Z,2.90
2022-12-31T18:10:07.734Z,2.80
2022-12-31T18:13:24.840Z,3.15
2022-12-31T18:16:28.762Z,2.38
2022-12-31T18:20:03.032Z,2.60
2022-12-31T18:22:53.764Z,3.15
2022-12-31T18:25:55.734Z,3.35
2022-12-31T18:29:01.541Z,2.38
2022-12-31T18:32:03.670Z,2.90
2022-12-31T18:35:32.910Z,2.70
2022-12-31T18:38:34.851Z,2.70
2022-12-31T18:41:45.701Z,2.80
2022-12-31T18:44:48.306Z,2.85
2022-12-31T18:47:50.963Z,2.78
2022-12-31T18:50:53.766Z,3.05
2022-12-31T18:53:57.290Z,3.30
2022-12-31T18:56:59.326Z,3.88
2022-12-31T19:00:02.151Z,2.90
2022-12-31T19:03:07.306Z,2.75
2022-12-31T19:06:10.121Z,2.67
2022-12-31T19:09:43.285Z,3.40
2022-12-31T19:12:38.779Z,2.95
2022-12-31T19:15:48.903Z,3.03
2022-12-31T19:18:51.570Z,3.53
2022-12-31T19:21:53.632Z,3.50
2022-12-31T19:24:56.977Z,3.30
2022-12-31T19:28:01.191Z,3.65
2022-12-31T19:31:04.097Z,3.70
2022-12-31T19:34:06.449Z,3.92
2022-12-31T19:37:15.444Z,3.90
2022-12-31T19:40:23.732Z,4.25
2022-12-31T19:43:26.297Z,4.72
2022-12-31T19:46:28.480Z,4.65
2022-12-31T19:49:31.140Z,4.32
2022-12-31T19:52:33.318Z,4.80
2022-12-31T19:55:35.913Z,5.40
2022-12-31T19:58:38.026Z,5.78
2022-12-31T20:01:40.484Z,5.45
2022-12-31T20:04:42.916Z,5.68
2022-12-31T20:07:46.677Z,5.55
2022-12-31T20:10:48.816Z,6.18
2022-12-31T20:13:53.946Z,6.75
2022-12-31T20:16:56.847Z,6.88
2022-12-31T20:20:00.213Z,6.97
2022-12-31T20:23:05.195Z,6.53
2022-12-31T20:26:09.008Z,5.95
2022-12-31T20:29:10.945Z,6.80
2022-12-31T20:32:13.330Z,6.43
2022-12-31T20:35:15.719Z,6.75
2022-12-31T20:38:17.976Z,6.50
2022-12-31T20:41:22.498Z,5.65
2022-12-31T20:44:25.542Z,6.63
2022-12-31T20:47:27.633Z,6.38
2022-12-31T20:50:30.034Z,6.28
2022-12-31T20:53:32.311Z,5.90
2022-12-31T20:56:37.730Z,5.72
2022-12-31T20:59:40.017Z,5.30
2022-12-31T21:02:44.970Z,5.22
2022-12-31T21:05:53.587Z,5.50
2022-12-31T21:08:59.011Z,5.97
2022-12-31T21:12:19.930Z,6.15
2022-12-31T21:15:22.518Z,5.38
2022-12-31T21:22:11.763Z,4.97
2022-12-31T21:25:14.215Z,4.97
2022-12-31T21:28:16.214Z,4.85
2022-12-31T21:31:19.312Z,5.45
2022-12-31T21:34:21.375Z,4.50
2022-12-31T21:37:24.196Z,4.70
2022-12-31T21:40:26.130Z,4.93
2022-12-31T21:43:30.936Z,4.40
2022-12-31T21:46:33.604Z,5.20
2022-12-31T21:49:36.311Z,5.40
2022-12-31T21:52:38.385Z,5.43
2022-12-31T21:56:00.367Z,6.50
2022-12-31T21:59:21.694Z,4.70
2022-12-31T22:02:43.375Z,5.47
2022-12-31T22:06:10.981Z,4.68
2022-12-31T22:09:13.583Z,5.90
2022-12-31T22:12:16.500Z,4.53
2022-12-31T22:15:20.607Z,5.03
2022-12-31T22:18:23.377Z,4.80
2022-12-31T22:21:26.971Z,4.57
2022-12-31T22:24:29.788Z,4.47
2022-12-31T22:27:32.253Z,3.92
2022-12-31T22:30:35.045Z,4.68
2022-12-31T22:33:37.734Z,4.55
2022-12-31T22:36:39.967Z,4.38
2022-12-31T22:39:43.295Z,4.43
2022-12-31T22:42:46.978Z,4.13
2022-12-31T22:45:49.375Z,4.82
2022-12-31T22:48:52.891Z,4.43
2022-12-31T22:51:59.726Z,4.65
2022-12-31T22:55:06.540Z,4.47
2022-12-31T22:58:10.389Z,5.28
2022-12-31T23:01:20.769Z,4.43
2022-12-31T23:04:23.582Z,4.18
2022-12-31T23:07:27.342Z,4.15
2022-12-31T23:10:52.179Z,7.45
2022-12-31T23:14:14.919Z,5.40
2022-12-31T23:17:45.855Z,5.65
2022-12-31T23:21:06.389Z,14.30
2022-12-31T23:24:17.272Z,8.80
2022-12-31T23:27:22.647Z,8.02
2022-12-31T23:30:25.230Z,9.48
2022-12-31T23:33:27.568Z,7.35
2022-12-31T23:36:31.142Z,8.13
2022-12-31T23:39:33.491Z,7.55
2022-12-31T23:42:37.071Z,9.18
2022-12-31T23:45:39.774Z,8.10
2022-12-31T23:48:43.661Z,8.70
2022-12-31T23:51:46.035Z,8.35
2022-12-31T23:54:48.829Z,7.93
2022-12-31T23:57:51.170Z,9.32
